Time;durP1;ratioP1;P1;durP2;ratioP2;P2;SDS_P1;SDS_P2;PMS_P1;PMS_P2;Temp;Humidity;BMP_temperature;BMP_pressure;BME280_temperature;BME280_humidity;BME280_pressure;Samples;Min_cycle;Max_cycle;Signal;HPM_P1;HPM_P2
2022/03/12 00:00:54;;;;;;;9.20;4.97;;;9.50;44.00;;;;;;9167530;19;20692;-62
2022/03/12 00:04:00;;;;;;;10.82;5.25;;;9.40;44.00;;;;;;9180692;19;20044;-63
2022/03/12 00:07:09;;;;;;;11.57;5.13;;;9.40;44.10;;;;;;9177222;19;20010;-62
2022/03/12 00:10:15;;;;;;;12.88;5.82;;;9.40;44.10;;;;;;9179796;19;20011;-61
2022/03/12 00:13:21;;;;;;;12.50;5.32;;;9.40;44.10;;;;;;9180909;19;20470;-62
2022/03/12 00:16:30;;;;;;;9.82;5.13;;;9.40;44.20;;;;;;9180482;19;20018;-61
2022/03/12 00:19:35;;;;;;;8.88;5.07;;;9.40;44.10;;;;;;9179658;19;20494;-62
2022/03/12 00:22:43;;;;;;;10.82;5.70;;;9.40;44.20;;;;;;9181836;19;20015;-62
2022/03/12 00:25:48;;;;;;;10.18;5.30;;;9.30;44.10;;;;;;9179842;19;20340;-62
2022/03/12 00:28:54;;;;;;;13.05;6.13;;;9.30;44.20;;;;;;9179690;19;20006;-61
2022/03/12 00:32:04;;;;;;;12.02;5.88;;;9.30;44.20;;;;;;9178895;19;20019;-62
2022/03/12 00:35:11;;;;;;;9.35;5.47;;;9.30;44.20;;;;;;9176064;19;20380;-62
2022/03/12 00:38:16;;;;;;;11.27;5.50;;;9.30;44.30;;;;;;9181524;19;20010;-62
2022/03/12 00:41:21;;;;;;;14.23;5.45;;;9.20;44.20;;;;;;9177809;19;20010;-62
2022/03/12 00:44:26;;;;;;;9.95;5.38;;;9.20;44.20;;;;;;9181435;19;20022;-63
2022/03/12 00:47:34;;;;;;;11.93;5.75;;;9.20;44.20;;;;;;9171085;19;20018;-62
2022/03/12 00:50:39;;;;;;;8.70;5.10;;;9.20;44.30;;;;;;9178326;19;20482;-61
2022/03/12 00:53:44;;;;;;;9.40;5.20;;;9.20;44.30;;;;;;9179274;19;20032;-62
2022/03/12 00:56:49;;;;;;;11.10;6.05;;;9.20;44.30;;;;;;9177117;19;20019;-63
2022/03/12 00:59:54;;;;;;;8.63;5.10;;;9.20;44.30;;;;;;9177250;19;20026;-62
2022/03/12 01:03:03;;;;;;;21.05;5.82;;;9.10;44.30;;;;;;9177074;19;20022;-61
2022/03/12 01:06:10;;;;;;;12.63;5.38;;;9.10;44.30;;;;;;9178999;19;20050;-61
2022/03/12 01:09:15;;;;;;;11.18;5.50;;;9.10;44.30;;;;;;9175301;19;20026;-61
2022/03/12 01:12:20;;;;;;;10.57;5.35;;;9.10;44.40;;;;;;9176997;19;20037;-62
2022/03/12 01:15:25;;;;;;;8.93;5.10;;;9.00;44.30;;;;;;9178404;19;20018;-62
2022/03/12 01:18:34;;;;;;;10.65;5.60;;;9.00;44.30;;;;;;9177458;19;20018;-62
2022/03/12 01:21:39;;;;;;;9.35;5.65;;;9.00;44.30;;;;;;9172562;19;20010;-61
2022/03/12 01:24:44;;;;;;;8.68;5.35;;;9.00;44.40;;;;;;9177550;19;20014;-62
2022/03/12 01:27:49;;;;;;;10.35;6.03;;;9.00;44.40;;;;;;9180124;19;20021;-62
2022/03/12 01:30:54;;;;;;;8.77;5.47;;;8.90;44.40;;;;;;9187948;19;20789;-61
2022/03/12 01:34:03;;;;;;;10.60;5.57;;;8.90;44.40;;;;;;9186777;19;20696;-61
2022/03/12 01:37:08;;;;;;;12.38;5.53;;;8.90;44.40;;;;;;9185371;19;20019;-61
2022/03/12 01:40:14;;;;;;;11.40;5.75;;;8.90;44.40;;;;;;9186248;19;20014;-62
2022/03/12 01:43:18;;;;;;;14.43;5.80;;;8.90;44.40;;;;;;9185866;19;20029;-62
2022/03/12 01:46:34;;;;;;;14.52;6.18;;;8.90;44.40;;;;;;9183889;19;20007;-61
2022/03/12 01:49:42;;;;;;;11.65;5.47;;;8.90;44.50;;;;;;9184399;19;20022;-62
2022/03/12 01:52:47;;;;;;;13.88;5.57;;;8.90;44.50;;;;;;9187040;19;20468;-62
2022/03/12 01:55:53;;;;;;;12.00;5.65;;;8.90;44.50;;;;;;9187046;19;20349;-62
2022/03/12 01:59:01;;;;;;;10.25;5.72;;;8.90;44.50;;;;;;9185521;19;20707;-60
2022/03/12 02:02:09;;;;;;;13.80;5.50;;;8.80;44.50;;;;;;9181433;19;20011;-62
2022/03/12 02:05:18;;;;;;;12.48;5.35;;;8.80;44.50;;;;;;9185705;19;20375;-62
2022/03/12 02:08:23;;;;;;;9.10;5.32;;;8.80;44.50;;;;;;9183437;19;20022;-61
2022/03/12 02:11:30;;;;;;;8.82;5.55;;;8.80;44.50;;;;;;9184308;19;20039;-62
2022/03/12 02:14:36;;;;;;;15.18;7.63;;;8.80;44.60;;;;;;9185140;19;20019;-62
2022/03/12 02:17:41;;;;;;;12.80;6.00;;;8.80;44.60;;;;;;9183366;19;20014;-62
2022/03/12 02:20:48;;;;;;;8.38;5.25;;;8.80;44.60;;;;;;9181339;19;20033;-61
2022/03/12 02:23:56;;;;;;;10.88;5.97;;;8.80;44.60;;;;;;9183089;19;20029;-61
2022/03/12 02:27:04;;;;;;;11.90;5.95;;;8.80;44.60;;;;;;9181824;19;20059;-61
2022/03/12 02:30:12;;;;;;;11.63;5.88;;;8.80;44.60;;;;;;9182882;19;20014;-62
2022/03/12 02:33:24;;;;;;;10.25;5.38;;;8.80;44.70;;;;;;9184845;19;20014;-62
2022/03/12 02:36:29;;;;;;;10.88;6.07;;;8.80;44.70;;;;;;9183183;19;20029;-61
2022/03/12 02:39:38;;;;;;;13.80;6.28;;;8.80;44.80;;;;;;9178700;19;20019;-61
2022/03/12 02:42:44;;;;;;;26.70;6.55;;;8.80;44.70;;;;;;9183568;19;20042;-61
2022/03/12 02:45:51;;;;;;;11.68;5.95;;;8.80;44.70;;;;;;9182141;19;20023;-61
2022/03/12 02:48:57;;;;;;;11.52;5.47;;;8.70;44.80;;;;;;9183680;19;20010;-61
2022/03/12 02:52:02;;;;;;;27.42;6.55;;;8.70;44.70;;;;;;9182858;19;20018;-62
2022/03/12 02:55:13;;;;;;;12.20;5.82;;;8.70;44.80;;;;;;9184194;19;20015;-60
2022/03/12 02:58:18;;;;;;;10.13;6.03;;;8.70;44.80;;;;;;9184560;19;20048;-62
2022/03/12 03:01:26;;;;;;;12.73;6.40;;;8.70;44.80;;;;;;9183112;19;20026;-61
2022/03/12 03:04:40;;;;;;;17.42;6.40;;;8.70;44.90;;;;;;9183701;19;20057;-62
2022/03/12 03:07:45;;;;;;;;;;;8.70;44.90;;;;;;9181455;19;20010;-61
2022/03/12 03:10:54;;;;;;;11.07;6.00;;;8.70;44.90;;;;;;9183926;19;19922;-62
2022/03/12 03:13:59;;;;;;;10.10;6.20;;;8.60;45.50;;;;;;9181522;19;20025;-62
2022/03/12 03:17:05;;;;;;;13.93;6.80;;;8.70;45.00;;;;;;9183521;19;20047;-61
2022/03/12 03:20:12;;;;;;;12.65;5.97;;;8.60;44.90;;;;;;9177001;19;20059;-61
2022/03/12 03:23:18;;;;;;;11.75;6.43;;;8.60;45.00;;;;;;9183137;19;20015;-62
2022/03/12 03:26:56;;;;;;;11.85;5.90;;;8.60;45.00;;;;;;9181712;19;20017;-63
2022/03/12 03:30:01;;;;;;;10.70;5.82;;;8.60;45.00;;;;;;9181696;19;20418;-61
2022/03/12 03:33:12;;;;;;;10.63;6.03;;;8.60;45.00;;;;;;9183796;19;20018;-65
2022/03/12 03:36:18;;;;;;;11.63;6.35;;;8.60;45.10;;;;;;9178394;19;20110;-61
2022/03/12 03:39:23;;;;;;;13.25;6.80;;;8.60;45.10;;;;;;9182157;19;20034;-63
2022/03/12 03:42:31;;;;;;;13.20;6.05;;;8.60;45.10;;;;;;9180105;19;20518;-61
2022/03/12 03:45:36;;;;;;;18.23;6.45;;;8.60;45.70;;;;;;9182832;19;20023;-62
2022/03/12 03:48:41;;;;;;;11.57;6.22;;;8.60;45.20;;;;;;9179068;19;20018;-62
2022/03/12 03:51:47;;;;;;;15.15;7.03;;;8.60;45.20;;;;;;9180943;19;20382;-61
2022/03/12 03:54:52;;;;;;;15.85;6.20;;;8.60;45.20;;;;;;9182456;19;20010;-61
2022/03/12 03:58:02;;;;;;;10.93;6.10;;;8.60;45.30;;;;;;9179704;19;20014;-61
2022/03/12 04:01:11;;;;;;;11.20;5.97;;;8.60;45.20;;;;;;9182392;19;20347;-61
2022/03/12 04:04:17;;;;;;;12.30;6.63;;;8.60;45.20;;;;;;9180199;19;20584;-62
2022/03/12 04:07:22;;;;;;;10.68;6.25;;;8.60;45.30;;;;;;9178093;19;20041;-62
2022/03/12 04:10:27;;;;;;;11.57;6.22;;;8.60;45.30;;;;;;9179267;19;20011;-61
2022/03/12 04:13:36;;;;;;;11.93;6.70;;;8.60;45.30;;;;;;9179334;19;20022;-62
2022/03/12 04:16:44;;;;;;;14.32;6.30;;;8.60;45.40;;;;;;9178169;19;20580;-62
2022/03/12 04:19:49;;;;;;;16.15;7.93;;;8.60;45.40;;;;;;9176854;19;20021;-61
2022/03/12 04:22:55;;;;;;;12.20;6.55;;;8.60;45.40;;;;;;9179509;19;20022;-62
2022/03/12 04:26:03;;;;;;;14.15;6.57;;;8.60;45.40;;;;;;9178546;19;20017;-61
2022/03/12 04:29:11;;;;;;;14.27;6.43;;;8.70;45.50;;;;;;9178052;19;20018;-61
2022/03/12 04:32:16;;;;;;;15.15;6.90;;;8.60;45.40;;;;;;9179963;19;20594;-61
2022/03/12 04:35:22;;;;;;;17.20;7.05;;;8.60;45.50;;;;;;9178494;19;20048;-61
2022/03/12 04:38:28;;;;;;;12.38;6.90;;;8.60;45.50;;;;;;9179131;19;20029;-62
2022/03/12 04:41:34;;;;;;;13.13;6.28;;;8.60;45.50;;;;;;9179898;19;20014;-61
2022/03/12 04:44:43;;;;;;;11.45;6.65;;;8.60;45.50;;;;;;9181022;19;20014;-61
2022/03/12 04:47:50;;;;;;;15.82;6.97;;;8.60;45.60;;;;;;9178450;19;20010;-62
2022/03/12 04:50:56;;;;;;;13.98;6.68;;;8.60;45.70;;;;;;9179901;19;20368;-60
2022/03/12 04:54:03;;;;;;;9.07;6.32;;;8.60;45.60;;;;;;9177869;19;20034;-61
2022/03/12 04:57:08;;;;;;;11.98;6.18;;;8.60;45.70;;;;;;9179953;19;20025;-61
2022/03/12 05:00:20;;;;;;;17.98;6.72;;;8.60;45.70;;;;;;9178043;19;20026;-61
2022/03/12 05:03:25;;;;;;;12.05;7.00;;;8.60;45.70;;;;;;9174966;19;20015;-61
2022/03/12 05:06:30;;;;;;;16.30;6.78;;;8.60;45.70;;;;;;9179668;19;20395;-61
2022/03/12 05:09:35;;;;;;;17.52;6.75;;;8.60;45.80;;;;;;9174867;19;20019;-61
2022/03/12 05:12:41;;;;;;;16.13;6.50;;;8.60;45.90;;;;;;9178768;19;20741;-62
2022/03/12 05:15:50;;;;;;;13.40;6.43;;;8.60;45.80;;;;;;9178273;19;20014;-62
2022/03/12 05:18:56;;;;;;;12.95;6.95;;;8.60;45.90;;;;;;9178803;19;20010;-60
2022/03/12 05:22:02;;;;;;;12.15;6.07;;;8.50;45.90;;;;;;9174179;19;20025;-62
2022/03/12 05:25:08;;;;;;;12.38;6.22;;;8.60;45.90;;;;;;9178456;19;20687;-62
2022/03/12 05:28:19;;;;;;;15.73;7.07;;;8.50;45.90;;;;;;9175468;19;20074;-62
2022/03/12 05:31:26;;;;;;;15.48;7.10;;;8.50;45.90;;;;;;9177881;19;20018;-61
2022/03/12 05:34:31;;;;;;;13.60;6.72;;;8.50;45.90;;;;;;9176409;19;20019;-62
2022/03/12 05:37:37;;;;;;;14.80;7.47;;;8.50;46.00;;;;;;9175901;19;20091;-60
2022/03/12 05:40:42;;;;;;;17.08;6.75;;;8.50;46.00;;;;;;9178198;19;20019;-61
2022/03/12 05:43:49;;;;;;;12.95;6.35;;;8.50;46.00;;;;;;9176163;19;20022;-61
2022/03/12 05:46:56;;;;;;;11.70;6.53;;;8.40;46.00;;;;;;9174466;19;20010;-60
2022/03/12 05:50:01;;;;;;;12.80;7.00;;;8.40;46.10;;;;;;9175315;19;20026;-63
2022/03/12 05:53:09;;;;;;;17.20;7.05;;;8.40;46.10;;;;;;9176815;19;20426;-61
2022/03/12 05:56:14;;;;;;;13.85;6.43;;;8.40;46.10;;;;;;9174429;19;20015;-60
2022/03/12 05:59:19;;;;;;;14.68;7.47;;;8.40;46.20;;;;;;9175600;19;20018;-62
2022/03/12 06:02:27;;;;;;;16.02;6.88;;;8.30;46.20;;;;;;9175721;19;20019;-60
2022/03/12 06:05:35;;;;;;;20.05;7.50;;;8.30;46.20;;;;;;9172469;19;20032;-61
2022/03/12 06:08:45;;;;;;;16.85;6.93;;;8.30;46.30;;;;;;9170245;19;20033;-60
2022/03/12 06:11:54;;;;;;;13.40;7.05;;;8.30;46.30;;;;;;9169691;19;20047;-60
2022/03/12 06:14:59;;;;;;;26.83;6.65;;;8.30;46.30;;;;;;9182291;19;20014;-60
2022/03/12 06:18:09;;;;;;;20.75;6.85;;;8.30;46.40;;;;;;9179608;19;20021;-61
2022/03/12 06:21:14;;;;;;;17.50;6.97;;;8.30;46.40;;;;;;9180780;19;20064;-61
2022/03/12 06:24:22;;;;;;;18.20;7.63;;;8.30;46.40;;;;;;9185534;19;20034;-61
2022/03/12 06:27:27;;;;;;;15.50;7.45;;;8.30;46.50;;;;;;9185679;19;20483;-61
2022/03/12 06:30:33;;;;;;;12.75;6.80;;;8.20;46.50;;;;;;9184859;19;20026;-61
2022/03/12 06:33:41;;;;;;;22.85;6.95;;;8.20;46.60;;;;;;9183041;19;20017;-61
2022/03/12 06:36:46;;;;;;;13.02;7.32;;;8.20;46.60;;;;;;9182636;19;20025;-61
2022/03/12 06:39:51;;;;;;;11.43;6.80;;;8.20;46.60;;;;;;9183660;19;20458;-61
2022/03/12 06:42:59;;;;;;;12.75;6.80;;;8.30;46.80;;;;;;9183199;19;20018;-61
2022/03/12 06:46:04;;;;;;;13.60;7.00;;;8.20;46.80;;;;;;9182338;19;20010;-61
2022/03/12 06:49:12;;;;;;;14.02;6.90;;;8.30;46.90;;;;;;9180166;19;20040;-61
2022/03/12 06:52:19;;;;;;;15.63;7.38;;;8.20;46.80;;;;;;9181319;19;20082;-61
2022/03/12 06:55:28;;;;;;;15.65;7.63;;;8.20;46.90;;;;;;9184260;19;20082;-62
2022/03/12 06:58:33;;;;;;;15.05;7.35;;;8.30;47.00;;;;;;9181977;19;20014;-61
2022/03/12 07:01:38;;;;;;;13.82;7.55;;;8.30;47.00;;;;;;9181447;19;20027;-62
2022/03/12 07:04:50;;;;;;;13.88;7.50;;;8.30;47.00;;;;;;9182610;19;20966;-62
2022/03/12 07:07:56;;;;;;;13.40;7.00;;;8.30;47.00;;;;;;9181878;19;20460;-62
2022/03/12 07:11:02;;;;;;;23.35;7.38;;;8.30;47.10;;;;;;9183251;19;20015;-63
2022/03/12 07:14:07;;;;;;;21.95;8.30;;;8.30;47.10;;;;;;9183355;19;20021;-61
2022/03/12 07:17:12;;;;;;;14.27;7.40;;;8.30;47.10;;;;;;9182535;19;20014;-62
2022/03/12 07:20:20;;;;;;;15.50;7.30;;;8.30;47.20;;;;;;9177608;19;20360;-62
2022/03/12 07:23:25;;;;;;;16.13;6.93;;;8.30;47.20;;;;;;9179919;19;20435;-61
2022/03/12 07:26:30;;;;;;;18.65;7.75;;;8.40;47.40;;;;;;9180955;19;20018;-61
2022/03/12 07:29:45;;;;;;;14.45;7.13;;;8.40;47.40;;;;;;9178933;19;20021;-60
2022/03/12 07:32:50;;;;;;;15.98;7.60;;;8.40;47.40;;;;;;9181247;19;20018;-61
2022/03/12 07:35:58;;;;;;;14.52;7.50;;;8.50;47.50;;;;;;9180203;19;20026;-61
2022/03/12 07:39:03;;;;;;;13.65;7.28;;;8.50;47.60;;;;;;9182273;19;20097;-61
2022/03/12 07:42:09;;;;;;;14.10;7.65;;;8.60;47.60;;;;;;9181664;19;20025;-60
2022/03/12 07:45:19;;;;;;;15.23;8.00;;;8.70;47.70;;;;;;9179102;19;20649;-62
2022/03/12 07:48:24;;;;;;;14.48;7.53;;;8.80;47.70;;;;;;9181319;19;20015;-62
2022/03/12 07:51:47;;;;;;;16.33;7.15;;;8.90;47.80;;;;;;9181194;19;20026;-61
2022/03/12 07:54:52;;;;;;;15.80;7.93;;;9.00;47.90;;;;;;9179558;19;20006;-62
2022/03/12 07:57:57;;;;;;;18.80;8.52;;;9.10;47.90;;;;;;9180474;19;20010;-61
2022/03/12 08:01:03;;;;;;;14.57;7.90;;;9.30;48.00;;;;;;9181723;19;20090;-61
2022/03/12 08:04:09;;;;;;;16.38;8.45;;;9.40;48.00;;;;;;9179081;19;20069;-61
2022/03/12 08:07:16;;;;;;;13.25;7.93;;;9.50;48.00;;;;;;9178329;19;20013;-60
2022/03/12 08:10:23;;;;;;;16.98;7.90;;;9.70;48.00;;;;;;9181079;19;20474;-61
2022/03/12 08:13:29;;;;;;;29.33;7.97;;;9.80;48.00;;;;;;9181521;19;20026;-61
2022/03/12 08:16:35;;;;;;;16.90;8.48;;;10.00;48.20;;;;;;9178593;19;20018;-61
2022/03/12 08:19:43;;;;;;;20.92;8.27;;;10.10;48.20;;;;;;9177585;19;20650;-62
2022/03/12 08:22:51;;;;;;;15.02;8.27;;;10.30;48.20;;;;;;9181549;19;20085;-61
2022/03/12 08:25:57;;;;;;;14.50;7.82;;;10.50;48.30;;;;;;9182085;19;20018;-62
2022/03/12 08:29:05;;;;;;;24.35;8.10;;;10.60;48.20;;;;;;9178418;19;20044;-61
2022/03/12 08:32:13;;;;;;;16.33;8.38;;;10.80;48.30;;;;;;9178508;19;20530;-61
2022/03/12 08:35:18;;;;;;;15.88;7.90;;;11.00;48.30;;;;;;9179038;19;20014;-61
2022/03/12 08:38:26;;;;;;;15.23;8.20;;;11.10;48.30;;;;;;9178771;19;20018;-61
2022/03/12 08:41:34;;;;;;;16.73;7.50;;;11.30;48.40;;;;;;9177504;19;20029;-61
2022/03/12 08:44:39;;;;;;;13.52;7.78;;;11.40;48.30;;;;;;9180362;19;20033;-61
2022/03/12 08:47:45;;;;;;;12.10;7.35;;;11.50;48.30;;;;;;9177477;19;20404;-62
2022/03/12 08:50:50;;;;;;;16.98;7.75;;;11.70;48.40;;;;;;9176093;19;20022;-61
2022/03/12 08:53:58;;;;;;;16.48;8.45;;;11.80;48.50;;;;;;9180388;19;20011;-61
2022/03/12 08:57:05;;;;;;;18.23;8.45;;;11.90;48.50;;;;;;9179820;19;20018;-61
2022/03/12 09:00:15;;;;;;;16.23;8.57;;;12.00;48.60;;;;;;9178197;19;20074;-62
2022/03/12 09:03:22;;;;;;;11.90;7.20;;;12.20;48.60;;;;;;9177274;19;20483;-61
2022/03/12 09:06:29;;;;;;;15.32;7.65;;;12.30;48.60;;;;;;9175789;19;20040;-60
2022/03/12 09:09:36;;;;;;;18.80;8.10;;;12.40;48.60;;;;;;9175098;19;20051;-62
2022/03/12 09:12:41;;;;;;;20.50;7.57;;;12.50;48.70;;;;;;9176380;19;20011;-61
2022/03/12 09:15:52;;;;;;;15.93;7.93;;;12.50;48.70;;;;;;9177060;19;20357;-62
2022/03/12 09:18:58;;;;;;;14.27;7.55;;;12.70;48.80;;;;;;9177893;19;20356;-62
2022/03/12 09:22:04;;;;;;;16.92;7.13;;;12.70;48.80;;;;;;9169043;19;20044;-62
2022/03/12 09:25:13;;;;;;;14.52;7.90;;;12.80;48.90;;;;;;9173847;19;20030;-62
2022/03/12 09:28:18;;;;;;;16.90;8.48;;;12.90;49.00;;;;;;9170592;19;20007;-62
2022/03/12 09:31:24;;;;;;;15.95;8.10;;;13.00;49.10;;;;;;9171778;19;20029;-61
2022/03/12 09:34:29;;;;;;;24.63;7.85;;;13.10;49.10;;;;;;9176387;19;20039;-62
2022/03/12 09:37:38;;;;;;;13.93;8.10;;;13.20;49.10;;;;;;9173771;19;20499;-61
2022/03/12 09:40:47;;;;;;;12.05;7.43;;;13.30;49.20;;;;;;9175429;19;20018;-63
2022/03/12 09:43:52;;;;;;;14.93;7.70;;;13.40;49.30;;;;;;9171817;19;20090;-61
2022/03/12 09:46:58;;;;;;;10.70;7.22;;;13.60;49.30;;;;;;9173911;19;20030;-62
2022/03/12 09:50:04;;;;;;;23.75;8.48;;;13.70;49.40;;;;;;9179698;19;20019;-62
2022/03/12 09:53:09;;;;;;;13.40;7.38;;;13.80;49.50;;;;;;9180159;19;20111;-61
2022/03/12 09:56:16;;;;;;;12.35;6.75;;;13.90;49.60;;;;;;9185006;19;20176;-62
2022/03/12 09:59:21;;;;;;;10.43;6.32;;;14.00;49.70;;;;;;9183967;19;20078;-62
2022/03/12 10:02:26;;;;;;;15.82;7.47;;;14.10;49.80;;;;;;9174555;19;20479;-62
2022/03/12 10:05:33;;;;;;;13.95;7.25;;;14.20;49.90;;;;;;9182240;19;20018;-62
2022/03/12 10:08:38;;;;;;;11.65;6.32;;;14.30;50.10;;;;;;9178830;19;20018;-62
2022/03/12 10:11:45;;;;;;;15.98;6.40;;;14.40;50.20;;;;;;9178635;19;20014;-62
2022/03/12 10:14:52;;;;;;;11.43;6.43;;;14.50;50.30;;;;;;9178871;19;20018;-63
2022/03/12 10:17:57;;;;;;;13.43;7.30;;;14.60;50.40;;;;;;9182763;19;20015;-62
2022/03/12 10:21:02;;;;;;;15.90;6.97;;;14.70;50.50;;;;;;9177026;19;20022;-62
2022/03/12 10:24:08;;;;;;;14.90;6.18;;;14.80;50.70;;;;;;9182856;19;20025;-62
2022/03/12 10:27:15;;;;;;;13.30;7.15;;;14.90;50.70;;;;;;9182008;19;20059;-63
2022/03/12 10:30:23;;;;;;;11.65;6.18;;;15.00;50.80;;;;;;9180116;19;20015;-63
2022/03/12 10:33:28;;;;;;;10.02;5.85;;;15.10;50.90;;;;;;9183423;19;20014;-63
2022/03/12 10:36:41;;;;;;;12.65;5.82;;;15.20;51.00;;;;;;9186226;19;20015;-62
2022/03/12 10:39:46;;;;;;;10.30;6.03;;;15.30;51.20;;;;;;9181510;19;20045;-64
2022/03/12 10:42:56;;;;;;;10.70;6.25;;;15.40;51.10;;;;;;9182973;19;20018;-62
2022/03/12 10:46:06;;;;;;;9.85;5.85;;;15.50;51.30;;;;;;9183691;19;20033;-62
2022/03/12 10:49:13;;;;;;;11.15;6.05;;;15.60;51.20;;;;;;9181632;19;20529;-62
2022/03/12 10:52:20;;;;;;;16.10;6.18;;;15.70;51.30;;;;;;9179551;19;20017;-62
2022/03/12 10:55:27;;;;;;;14.85;5.97;;;15.80;51.40;;;;;;9183924;19;20014;-63
2022/03/12 10:58:36;;;;;;;8.93;5.07;;;15.90;51.40;;;;;;9184543;19;20014;-61
2022/03/12 11:01:48;;;;;;;10.05;5.55;;;15.90;51.40;;;;;;9185411;19;20019;-61
2022/03/12 11:04:54;;;;;;;11.50;6.13;;;16.00;51.50;;;;;;9184431;19;20018;-62
2022/03/12 11:08:15;;;;;;;10.20;5.22;;;16.10;51.40;;;;;;9182136;19;20113;-62
2022/03/12 11:11:22;;;;;;;8.32;4.93;;;16.10;51.40;;;;;;9184257;19;20772;-62
2022/03/12 11:14:32;;;;;;;10.10;5.05;;;16.20;51.40;;;;;;9183728;19;20021;-62
2022/03/12 11:17:44;;;;;;;13.55;5.25;;;16.20;51.50;;;;;;9185223;19;20014;-61
2022/03/12 11:20:53;;;;;;;8.63;5.32;;;16.30;51.60;;;;;;9179121;19;20360;-62
2022/03/12 11:23:59;;;;;;;10.48;5.15;;;16.30;51.50;;;;;;9185076;19;20018;-63
2022/03/12 11:27:04;;;;;;;10.98;4.78;;;16.40;51.50;;;;;;9181649;19;20636;-63
2022/03/12 11:30:15;;;;;;;14.50;5.13;;;16.40;51.50;;;;;;9185035;19;20014;-62
2022/03/12 11:33:21;;;;;;;9.98;5.70;;;16.40;51.50;;;;;;9182253;19;20025;-62
2022/03/12 11:36:27;;;;;;;14.32;5.68;;;16.50;51.50;;;;;;9184540;19;20014;-62
2022/03/12 11:39:36;;;;;;;10.43;5.10;;;16.50;51.50;;;;;;9184133;19;20011;-62
2022/03/12 11:42:43;;;;;;;8.43;5.25;;;16.60;51.50;;;;;;9179588;19;20014;-63
2022/03/12 11:45:50;;;;;;;9.98;5.60;;;16.60;51.40;;;;;;9182322;19;20006;-62
2022/03/12 11:48:56;;;;;;;14.23;5.60;;;16.60;51.50;;;;;;9182123;19;20077;-63
2022/03/12 11:52:01;;;;;;;12.00;5.72;;;16.70;51.50;;;;;;9180021;19;20106;-62
2022/03/12 11:55:17;;;;;;;9.73;5.50;;;16.70;51.50;;;;;;9182072;19;20023;-62
2022/03/12 11:58:22;;;;;;;10.52;5.35;;;16.70;51.50;;;;;;9182067;19;20049;-61
2022/03/12 12:01:29;;;;;;;11.20;5.45;;;16.70;51.40;;;;;;9181952;19;20110;-62
2022/03/12 12:04:36;;;;;;;11.55;6.05;;;16.70;51.40;;;;;;9180878;19;20076;-62
2022/03/12 12:07:45;;;;;;;13.35;6.10;;;16.70;51.50;;;;;;9176390;19;20642;-63
2022/03/12 12:10:54;;;;;;;12.98;5.50;;;16.80;51.50;;;;;;9178132;19;20033;-62
2022/03/12 12:14:00;;;;;;;10.77;5.43;;;16.90;51.50;;;;;;9177642;19;20034;-62
2022/03/12 12:17:08;;;;;;;10.20;5.35;;;16.80;51.40;;;;;;9176471;19;20471;-62
2022/03/12 12:20:15;;;;;;;10.77;5.28;;;16.90;51.50;;;;;;9174021;19;20014;-63
2022/03/12 12:23:22;;;;;;;11.55;5.68;;;16.90;51.40;;;;;;9177543;19;20480;-62
2022/03/12 12:26:29;;;;;;;11.55;5.13;;;16.90;51.40;;;;;;9179453;19;20018;-63
2022/03/12 12:29:48;;;;;;;12.13;5.30;;;16.90;51.30;;;;;;9179163;19;20026;-62
2022/03/12 12:32:56;;;;;;;12.50;4.85;;;16.90;51.30;;;;;;9179796;19;20015;-62
2022/03/12 12:36:13;;;;;;;13.90;5.38;;;16.90;51.30;;;;;;9183223;19;20018;-62
2022/03/12 12:39:18;;;;;;;11.10;5.07;;;16.90;51.30;;;;;;9179861;19;20018;-63
2022/03/12 12:42:39;;;;;;;12.52;7.20;;;16.90;51.30;;;;;;9180817;19;20019;-62
2022/03/12 12:46:10;;;;;;;8.75;4.72;;;16.90;51.30;;;;;;9180533;19;20107;-63
2022/03/12 12:49:20;;;;;;;13.90;5.65;;;16.90;51.30;;;;;;9182509;19;20077;-64
2022/03/12 12:52:26;;;;;;;7.97;4.78;;;16.80;51.80;;;;;;9178297;19;20018;-63
2022/03/12 12:55:34;;;;;;;9.93;5.07;;;16.90;51.40;;;;;;9180882;19;20024;-62
2022/03/12 12:58:49;;;;;;;8.10;5.15;;;16.80;51.30;;;;;;9181314;19;20022;-63
2022/03/12 13:01:55;;;;;;;10.10;4.50;;;16.80;51.40;;;;;;9179940;19;20014;-62
2022/03/12 13:05:07;;;;;;;9.55;4.80;;;16.80;51.40;;;;;;9179297;19;20364;-63
2022/03/12 13:08:16;;;;;;;13.73;4.68;;;16.90;51.50;;;;;;9180283;19;20010;-62
2022/03/12 13:11:29;;;;;;;8.93;4.10;;;16.80;51.40;;;;;;9178055;19;20041;-62
2022/03/12 13:14:48;;;;;;;8.75;4.55;;;16.90;51.40;;;;;;9180034;19;20044;-62
2022/03/12 13:17:56;;;;;;;11.55;4.40;;;16.80;51.30;;;;;;9181215;19;20029;-63
2022/03/12 13:21:03;;;;;;;10.85;4.43;;;16.80;51.30;;;;;;9175199;19;20042;-63
2022/03/12 13:24:18;;;;;;;9.60;4.38;;;16.90;51.30;;;;;;9175830;19;20101;-63
2022/03/12 13:27:26;;;;;;;8.23;4.38;;;16.90;51.30;;;;;;9178939;19;20018;-62
2022/03/12 13:30:36;;;;;;;8.13;4.30;;;16.90;51.30;;;;;;9179194;19;20030;-63
2022/03/12 13:33:42;;;;;;;10.00;4.47;;;16.90;51.30;;;;;;9177657;19;20023;-63
2022/03/12 13:36:54;;;;;;;8.68;4.50;;;16.90;51.30;;;;;;9180133;19;20020;-63
2022/03/12 13:40:03;;;;;;;9.80;4.97;;;16.90;51.40;;;;;;9177625;19;20019;-63
2022/03/12 13:43:09;;;;;;;12.23;5.22;;;16.90;51.40;;;;;;9180112;19;20018;-62
2022/03/12 13:46:14;;;;;;;7.43;4.40;;;16.90;51.30;;;;;;9178547;19;20031;-62
2022/03/12 13:49:21;;;;;;;30.50;5.43;;;16.90;51.30;;;;;;9177890;19;20062;-63
2022/03/12 13:52:29;;;;;;;9.77;4.50;;;17.00;51.40;;;;;;9176857;19;20010;-63
2022/03/12 13:55:35;;;;;;;9.80;4.60;;;17.00;51.40;;;;;;9176880;19;20486;-62
2022/03/12 13:58:44;;;;;;;9.27;4.95;;;17.00;51.40;;;;;;9178212;19;20030;-63
2022/03/12 14:01:50;;;;;;;15.20;4.40;;;17.00;51.30;;;;;;9178211;19;20085;-63
2022/03/12 14:04:56;;;;;;;11.18;4.35;;;17.00;51.30;;;;;;9177185;19;20026;-62
2022/03/12 14:08:18;;;;;;;10.73;4.50;;;17.00;51.30;;;;;;9176341;19;20666;-63
2022/03/12 14:11:32;;;;;;;9.68;5.70;;;17.00;51.40;;;;;;9176925;19;20019;-63
2022/03/12 14:14:37;;;;;;;9.65;5.38;;;17.00;51.30;;;;;;9176599;19;20025;-62
2022/03/12 14:17:43;;;;;;;10.60;5.40;;;17.00;51.30;;;;;;9177507;19;20498;-62
2022/03/12 14:20:49;;;;;;;12.85;6.30;;;17.10;51.30;;;;;;9174054;19;20018;-62
2022/03/12 14:24:12;;;;;;;9.35;5.65;;;17.10;51.30;;;;;;9179621;19;20070;-62
2022/03/12 14:27:18;;;;;;;14.30;6.95;;;17.10;51.30;;;;;;9177443;19;20015;-62
2022/03/12 14:30:25;;;;;;;15.40;6.40;;;17.10;51.30;;;;;;9175734;19;20032;-62
2022/03/12 14:33:30;;;;;;;10.93;5.55;;;17.10;51.30;;;;;;9177667;19;20013;-62
2022/03/12 14:36:35;;;;;;;15.60;7.50;;;17.10;51.20;;;;;;9186691;19;20022;-61
2022/03/12 14:39:46;;;;;;;14.52;6.43;;;17.10;51.20;;;;;;9178773;19;20025;-62
2022/03/12 14:42:53;;;;;;;14.45;6.32;;;17.10;51.20;;;;;;9179463;19;20045;-63
2022/03/12 14:46:00;;;;;;;17.67;6.10;;;17.10;51.20;;;;;;9181348;19;20480;-63
2022/03/12 14:49:05;;;;;;;11.98;5.45;;;17.10;51.30;;;;;;9180428;19;20404;-64
2022/03/12 14:52:16;;;;;;;15.23;6.43;;;17.10;51.30;;;;;;9179753;19;20029;-62
2022/03/12 14:55:27;;;;;;;13.18;5.85;;;17.10;51.30;;;;;;9178022;19;20018;-62
2022/03/12 14:58:33;;;;;;;13.63;6.85;;;17.00;51.30;;;;;;9178290;19;20605;-63
2022/03/12 15:01:38;;;;;;;11.02;6.53;;;17.00;51.30;;;;;;9177025;19;20025;-62
2022/03/12 15:04:50;;;;;;;11.88;6.90;;;17.00;51.40;;;;;;9177593;19;20037;-63
2022/03/12 15:07:57;;;;;;;;;;;17.00;52.00;;;;;;9177697;19;20007;-62
2022/03/12 15:11:10;;;;;;;18.42;7.47;;;17.00;51.40;;;;;;9180623;19;19967;-65
2022/03/12 15:14:16;;;;;;;14.98;8.20;;;17.00;51.40;;;;;;9175235;19;20086;-62
2022/03/12 15:17:28;;;;;;;15.10;7.13;;;17.00;51.60;;;;;;9180049;19;20453;-62
2022/03/12 15:20:36;;;;;;;17.70;7.05;;;16.90;51.50;;;;;;9173838;19;20483;-64
2022/03/12 15:23:45;;;;;;;15.45;8.05;;;17.00;51.50;;;;;;9181121;19;20047;-62
2022/03/12 15:27:06;;;;;;;19.00;9.75;;;16.90;51.50;;;;;;9178920;19;20348;-63
2022/03/12 15:30:15;;;;;;;20.23;11.10;;;16.90;51.50;;;;;;9177525;19;20375;-62
2022/03/12 15:33:28;;;;;;;20.90;12.05;;;16.90;51.50;;;;;;9176191;19;20014;-63
2022/03/12 15:36:38;;;;;;;16.92;10.85;;;16.90;51.50;;;;;;9178563;19;20029;-63
2022/03/12 15:39:44;;;;;;;15.63;9.73;;;16.80;51.50;;;;;;9179958;19;20097;-63
2022/03/12 15:42:51;;;;;;;23.83;9.90;;;16.80;51.50;;;;;;9179374;19;20749;-63
2022/03/12 15:45:57;;;;;;;14.82;9.85;;;16.70;51.50;;;;;;9177264;19;20018;-62
2022/03/12 15:49:02;;;;;;;15.65;10.00;;;16.70;51.50;;;;;;9175943;19;20014;-62
2022/03/12 15:52:09;;;;;;;13.68;9.15;;;16.70;51.60;;;;;;9177514;19;20014;-64
2022/03/12 15:55:16;;;;;;;15.38;9.65;;;16.70;51.60;;;;;;9179698;19;20019;-62
2022/03/12 15:58:24;;;;;;;13.25;8.75;;;16.70;51.60;;;;;;9178454;19;20014;-61
2022/03/12 16:01:29;;;;;;;18.33;9.90;;;16.70;51.60;;;;;;9177642;19;20375;-63
2022/03/12 16:04:34;;;;;;;13.40;9.25;;;16.60;51.60;;;;;;9176972;19;20057;-63
2022/03/12 16:07:39;;;;;;;21.13;9.63;;;16.60;51.60;;;;;;9178377;19;20021;-63
2022/03/12 16:10:44;;;;;;;15.05;9.88;;;16.60;51.70;;;;;;9180313;19;20037;-62